Steptoe Valley North, Nevada Weather observations

Data are for 10 minute period ending at time listed.
 Day   Time   Solar   Ave.   Ave.  Ave.  Vector  Max.   Baro.   Total    
  of    of     Rad.   Air    Rel.  Wind   Wind   Wind  Press.  Precip.   
Year   Day            Temp.  Hum.  Speed  Dir.   Gust                    
2015   (PST)  Kw/m2    F      %     mph   deg.    mph    mb.     in.     
-------------------------------------------------------------------------
 182    9:00   0.77   81.3    34    1.8    41     4.5   825.0    0.00 
 182    9:10   0.79   81.8    32    2.4    39     4.8   824.9    0.00 
 182    9:20   0.81   82.4    32    1.8    17     4.0   824.8    0.00 
 182    9:30   0.83   83.9    28    2.3    14     5.8   824.6    0.00 
 182    9:40   0.84   84.1    28    2.6     8     4.7   824.6    0.00 
 182    9:50   0.76   84.1    29    2.8   335     5.6   824.6    0.00 
 182   10:00   0.86   84.3    28    2.4    36     4.9   824.6    0.00 
 182   10:10   0.90   85.7    28    2.5     2     6.6   824.5    0.00 
 182   10:20   0.91   85.4    28    2.9    83     5.9   824.5    0.00 
 182   10:30   0.92   86.1    27    3.3   345     7.4   824.5    0.00 
 182   10:40   0.95   88.4    25    3.5   158     7.3   824.4    0.00 
 182   10:50   0.89   87.9    25    3.4    15     7.7   824.3    0.00 
 182   11:00   0.67   87.5    25    2.8   358     6.9   824.2    0.00 
 182   11:10   0.45   87.5    25    1.9   324     5.8   824.1    0.00 
 182   11:20   0.54   87.1    25    2.0   261     6.3   824.1    0.00 
 182   11:30   0.70   88.7    24    2.1   213     5.7   824.0    0.00 
 182   11:40   0.82   89.5    23    1.5    74     4.7   823.9    0.00 
 182   11:50   1.06   90.3    23    2.8   208     7.5   823.9    0.00 
 182   12:00   0.98   90.4    23    6.6   140    11.4   823.9    0.00 
 182   12:10   1.09   90.4    23    4.5   105     8.8   823.9    0.00 
 182   12:20   1.08   90.4    22    4.4     7     9.4   823.9    0.00 
 182   12:30   1.06   91.0    22    2.8    14     9.3   823.8    0.00 
 182   12:40   1.06   91.6    21    1.8   165     5.5   823.7    0.00 
 182   12:50   0.53   90.8    21    4.2    54    10.5   823.6    0.00 
 182   13:00   0.88   90.7    21    6.0    87    11.0   823.6    0.00 
 182   13:10   0.44   90.0    20    3.9   114     9.3   823.5    0.00 
 182   13:20   0.43   89.8    21    3.6    17     7.6   823.4    0.00 
 182   13:30   0.31   89.1    22    3.0    34     8.3   823.3    0.00 
 182   13:40   0.31   88.0    22    5.4    87     8.2   823.1    0.00 
 182   13:50   0.35   89.0    21    3.4   117     8.1   822.9    0.00 
 182   14:00   0.62   90.9    19    2.2   333     6.9   822.8    0.00 
 182   14:10   0.88   92.4    19    2.8    15     6.9   822.7    0.00 
 182   14:20   0.83   92.0    20    4.6    20     9.6   822.7    0.00 
 182   14:30   0.79   92.4    18    2.7   309     8.0   822.7    0.00 
 182   14:40   0.77   92.1    20    6.6    18    12.2   822.6    0.00 
 182   14:50   0.79   92.4    19    6.4   347     9.1   822.5    0.00 
 182   15:00   0.59   91.9    18    3.3   288     6.1   822.4    0.00 
 182   15:10   0.65   94.4    16    3.0   180     5.4   822.3    0.00 
 182   15:20   0.27   91.4    19    4.8    18     8.4   822.3    0.00 
 182   15:30   0.44   90.0    20    4.8    53     8.9   822.2    0.00 
 182   15:40   0.61   91.8    20    7.2    57    14.0   822.0    0.00 
 182   15:50   0.41   90.8    21    8.5    89    14.2   822.0    0.00 
 182   16:00   0.21   88.9    22    7.8    98    10.0   821.9    0.00 
 182   16:10   0.28   88.1    23    8.0    77    13.5   821.7    0.00 
 182   16:20   0.32   89.5    21    9.0    51    13.8   821.6    0.00 
 182   16:30   0.15   87.7    22    7.2    54    12.4   821.5    0.00 
 182   16:40   0.11   86.3    24    8.0    74    10.5   821.3    0.00 
 182   16:50   0.11   85.0    26    7.4    68    10.5   821.1    0.00 
 182   17:00   0.12   85.5    24    7.3    88    12.2   821.1    0.00 
 182   17:10   0.14   84.9    27    6.8    86    11.2   821.0    0.00 
 182   17:20   0.13   84.7    26    9.4    72    15.0   821.1    0.00 
 182   17:30   0.13   85.3    23   10.4    57    13.6   821.2    0.00 
 182   17:40   0.15   85.2    24    9.7    59    13.0   821.3    0.00 
 182   17:50   0.13   84.6    25    9.0    51    12.0   821.4    0.00 
 182   18:00   0.10   84.5    24    8.0    52    10.9   821.7    0.00 
 182   18:10   0.06   83.8    25    7.8    50    12.0   821.8    0.00 
 182   18:20   0.05   84.3    24    8.1    67    11.2   822.0    0.00 
 182   18:30   0.06   83.2    26    6.5    64     9.6   822.1    0.00 
 182   18:40   0.07   83.6    25    6.5    67     9.5   822.2    0.00 
 182   18:50   0.05   83.3    26    6.3    68     8.9   822.3    0.00 
 182   19:00   0.03   81.8    27    5.5    65     7.2   822.4    0.00 
 182   19:10   0.02   81.5    27    5.5    67     8.0   822.4    0.00 
 182   19:20   0.01   80.2    28    4.4    68     6.3   822.5    0.00 
 182   19:30   0.00   78.6    31    3.0    73     4.0   822.6    0.00 
 182   19:40   0.00   77.1    32    3.3    85     4.2   822.8    0.00 
 182   19:50   0.00   75.1    36    3.6    79     4.8   823.0    0.00 
 182   20:00   0.00   76.0    32    4.2    72     5.3   823.2    0.00 
 182   20:10   0.00   73.3    38    4.1    49     5.5   823.4    0.00 
 182   20:20   0.00   68.6    55    4.7    19     5.8   823.7    0.00 
 182   20:30   0.00   68.4    52    5.2    21     5.9   823.8    0.00 
 182   20:40   0.00   69.1    47    5.6    27     6.1   823.9    0.00 
 182   20:50   0.00   68.7    49    4.9    34     5.7   824.0    0.00 
 182   21:00   0.00   68.3    50    3.7    41     4.8   824.0    0.00 
 182   21:10   0.00   67.7    54    3.7   338     6.9   824.1    0.00 
 182   21:20   0.00   68.5    49    2.7   172     7.7   824.4    0.00 
 182   21:30   0.00   71.6    41   10.0   193    16.1   824.7    0.00 
 182   21:40   0.00   75.2    38    9.7   184    16.7   824.7    0.00 
 182   21:50   0.00   75.1    39   14.2   183    20.7   824.7    0.00 
 182   22:00   0.00   75.3    39   15.0   186    22.5   824.7    0.00 
 182   22:10   0.00   74.7    41   14.6   186    21.2   824.7    0.00 
 182   22:20   0.00   74.3    41   14.4   186    21.3   824.8    0.00 
 182   22:30   0.00   74.0    42   14.2   189    25.5   824.9    0.00 
 182   22:40   0.00   73.6    43   13.5   189    20.2   824.9    0.00 
 182   22:50   0.00   73.9    42   13.4   191    22.8   825.1    0.00 
 182   23:00   0.00   73.1    44   13.1   182    20.7   825.1    0.00 
 182   23:10   0.00   72.9    44   14.3   184    20.8   825.1    0.00 
 182   23:20   0.00   72.5    46   16.8   188    26.0   824.9    0.00 
 182   23:30   0.00   72.5    45   16.7   185    25.6   824.9    0.00 
 182   23:40   0.00   72.4    46   16.1   188    24.5   825.0    0.00 
 182   23:50   0.00   72.2    45   15.6   193    24.3   825.0    0.00 
 183    0:00   0.00   72.0    45   14.6   195    21.3   825.0    0.00 
 183    0:10   0.00   71.9    45   14.5   201    21.9   825.0    0.00 
 183    0:20   0.00   72.1    45   14.1   200    19.3   825.0    0.00 
 183    0:30   0.00   72.1    44   11.4   209    16.2   825.0    0.00 
 183    0:40   0.00   71.8    44    9.6   203    13.8   825.0    0.00 
 183    0:50   0.00   72.4    42   12.1   200    17.2   824.9    0.00 
 183    1:00   0.00   72.8    42   11.8   201    20.0   825.0    0.00 
 183    1:10   0.00   72.3    42   13.1   205    18.3   825.0    0.00 
 183    1:20   0.00   71.4    45   12.2   211    17.5   825.0    0.00 
 183    1:30   0.00   70.7    46   13.8   218    18.5   825.0    0.00 
 183    1:40   0.00   70.0    48   12.5   224    17.8   825.0    0.00 
 183    1:50   0.00   68.9    52   11.2   230    16.2   825.1    0.00 
 183    2:00   0.00   68.3    54   11.8   225    17.2   825.0    0.00 
 183    2:10   0.00   68.3    54   13.1   214    18.2   824.9    0.00 
 183    2:20   0.00   68.2    53   12.8   204    17.5   824.8    0.00 
 183    2:30   0.00   67.4    56   12.0   204    16.8   824.8    0.00 
 183    2:40   0.00   66.4    57   10.1   203    15.2   824.8    0.00 
 183    2:50   0.00   66.1    58   10.6   204    15.8   824.7    0.00 
 183    3:00   0.00   66.1    58    9.9   206    13.4   824.7    0.00 
 183    3:10   0.00   66.2    57    9.8   211    13.2   824.7    0.00 
 183    3:20   0.00   65.9    58    9.1   207    14.0   824.7    0.00 
 183    3:30   0.00   66.0    58    8.8   204    13.2   824.7    0.00 
 183    3:40   0.00   65.8    58    7.2   201    11.3   824.8    0.00 
 183    3:50   0.00   65.2    59    4.6   196     8.8   824.8    0.00 
 183    4:00   0.00   63.4    62    3.3    70     5.7   825.0    0.00 
 183    4:10   0.00   61.4    68    1.7   320     3.7   825.1    0.00 
 183    4:20   0.01   59.8    71    0.6   326     2.5   825.1    0.00 
 183    4:30   0.02   59.9    71    0.7    22     2.0   825.1    0.00 
 183    4:40   0.04   60.4    69    0.8    11     1.5   825.1    0.00 
 183    4:50   0.06   59.6    71    1.8    64     3.7   825.1    0.00 
 183    5:00   0.10   60.1    70    1.0    90     2.8   825.2    0.00 
 183    5:10   0.13   62.4    68    1.7   100     5.1   825.2    0.00 
 183    5:20   0.16   63.1    68    3.0   117     4.5   825.2    0.00 
 183    5:30   0.18   64.4    65    4.0   116     5.9   825.3    0.00 
 183    5:40   0.20   65.9    64    3.7   114     5.3   825.4    0.00 
 183    5:50   0.24   67.9    59    3.2   124     4.7   825.4    0.00 
 183    6:00   0.27   70.2    55    2.5   116     3.3   825.5    0.00 
 183    6:10   0.31   71.1    50    2.3   116     3.7   825.6    0.00 
 183    6:20   0.34   73.5    47    2.9   159     5.3   825.5    0.00 
 183    6:30   0.38   75.0    43    4.2   207     6.0   825.5    0.00 
 183    6:40   0.41   74.4    43    3.4   226     5.4   825.6    0.00 
 183    6:50   0.40   74.8    42    3.4   222     5.6   825.6    0.00 
 183    7:00   0.46   76.1    41    4.0   219     7.4   825.6    0.00 
 183    7:10   0.52   76.2    40    3.5   240     5.3   825.6    0.00 
 183    7:20   0.56   76.6    39    3.7   220     6.8   825.7    0.00 
 183    7:30   0.58   77.9    38    4.8   211     8.8   825.7    0.00 
 183    7:40   0.56   78.9    36    6.4   194    10.6   825.6    0.00 
 183    7:50   0.51   77.3    39    7.4   208    10.5   825.6    0.00 
 183    8:00   0.61   77.2    39    6.3   212     9.9   825.6    0.00 
 183    8:10   0.68   78.5    36    6.2   216     9.7   825.5    0.00 
 183    8:20   0.71   78.6    35    5.4   219     7.7   825.3    0.00 
 183    8:30   0.73   79.6    34    5.5   235     8.8   825.3    0.00 
 183    8:40   0.74   79.6    33    4.3   241     6.8   825.2    0.00 
 183    8:50   0.76   80.6    32    3.8   230     7.1   825.1    0.00 

Return to Steptoe Valley North graphs page.


Western Regional Climate Center,wrcc@dri.edu